Time;durP1;ratioP1;P1;durP2;ratioP2;P2;SDS_P1;SDS_P2;PMS_P1;PMS_P2;Temp;Humidity;BMP_temperature;BMP_pressure;BME280_temperature;BME280_humidity;BME280_pressure;Samples;Min_cycle;Max_cycle;Signal;HPM_P1;HPM_P2
2022/06/12 00:00:18;;;;;;;10.70;7.03;;;17.80;1.00;;;;;;7391721;19;20027;-63
2022/06/12 00:02:50;;;;;;;8.52;6.55;;;17.80;1.00;;;;;;7367780;19;20010;-62
2022/06/12 00:05:24;;;;;;;10.90;6.90;;;17.70;1.00;;;;;;7364422;19;20035;-62
2022/06/12 00:07:54;;;;;;;8.52;6.40;;;17.70;1.00;;;;;;7365483;19;20073;-62
2022/06/12 00:10:24;;;;;;;8.95;6.80;;;17.60;1.00;;;;;;7370976;19;20014;-63
2022/06/12 00:12:54;;;;;;;9.93;6.70;;;17.50;1.50;;;;;;7371485;19;20028;-63
2022/06/12 00:15:27;;;;;;;9.52;7.45;;;17.40;1.50;;;;;;7365588;19;20010;-63
2022/06/12 00:18:00;;;;;;;8.70;7.63;;;17.30;2.70;;;;;;7386533;19;20094;-63
2022/06/12 00:20:31;;;;;;;8.98;7.53;;;17.20;3.70;;;;;;7370416;19;20011;-62
2022/06/12 00:23:02;;;;;;;11.98;8.60;;;17.20;4.10;;;;;;7370303;19;20470;-62
2022/06/12 00:25:32;;;;;;;12.32;7.97;;;17.20;5.00;;;;;;7365263;19;20089;-63
2022/06/12 00:28:02;;;;;;;9.65;7.20;;;17.20;5.20;;;;;;7365145;19;20098;-63
2022/06/12 00:30:32;;;;;;;7.63;6.75;;;17.20;5.20;;;;;;7369743;19;20014;-63
2022/06/12 00:33:06;;;;;;;11.10;7.13;;;17.30;4.50;;;;;;7391579;19;20530;-63
2022/06/12 00:35:38;;;;;;;8.93;7.40;;;17.30;4.30;;;;;;7363525;19;20017;-63
2022/06/12 00:38:08;;;;;;;9.30;7.07;;;17.20;5.20;;;;;;7363150;19;20007;-63
2022/06/12 00:40:39;;;;;;;8.40;7.05;;;17.20;5.70;;;;;;7370677;19;20054;-63
2022/06/12 00:46:46;;;;;;;11.25;7.93;;;17.20;5.30;;;;;;7369432;19;20028;-63
2022/06/12 00:49:22;;;;;;;9.20;7.13;;;17.20;5.60;;;;;;7367346;19;20086;-63
2022/06/12 00:51:56;;;;;;;9.00;6.88;;;17.30;5.30;;;;;;7369216;19;20101;-63
2022/06/12 00:54:26;;;;;;;10.35;6.97;;;17.30;4.80;;;;;;7363542;19;20758;-63
2022/06/12 00:56:59;;;;;;;9.65;6.85;;;17.30;5.30;;;;;;7386384;19;20017;-63
2022/06/12 00:59:37;;;;;;;7.88;6.75;;;17.20;5.30;;;;;;7365218;19;20027;-63
2022/06/12 01:02:10;;;;;;;7.10;6.32;;;17.10;6.40;;;;;;7367154;19;20094;-62
2022/06/12 01:07:30;;;;;;;8.27;6.57;;;17.00;7.40;;;;;;7365340;19;20539;-63
2022/06/12 01:10:03;;;;;;;8.02;7.00;;;17.00;7.40;;;;;;7365388;19;20414;-63
2022/06/12 01:12:37;;;;;;;8.65;6.53;;;17.10;6.80;;;;;;7369301;19;20017;-62
2022/06/12 01:15:12;;;;;;;8.38;6.20;;;17.20;6.20;;;;;;7385445;19;20103;-64
2022/06/12 01:17:42;;;;;;;7.20;6.22;;;17.20;5.20;;;;;;7364691;19;20090;-62
2022/06/12 01:20:18;;;;;;;7.85;6.57;;;17.20;5.90;;;;;;7367144;19;20006;-62
2022/06/12 01:23:30;;;;;;;8.32;6.05;;;17.10;6.60;;;;;;7366225;19;20021;-63
2022/06/12 01:26:26;;;;;;;9.00;6.47;;;17.10;7.00;;;;;;7358850;19;20021;-62
2022/06/12 01:29:03;;;;;;;8.90;6.50;;;17.00;7.40;;;;;;7361625;19;20077;-63
2022/06/12 01:31:44;;;;;;;9.27;6.32;;;17.10;7.20;;;;;;7364527;19;20504;-62
2022/06/12 01:34:26;;;;;;;9.10;6.32;;;16.80;8.20;;;;;;7360816;19;20077;-63
2022/06/12 01:37:06;;;;;;;8.10;6.43;;;16.60;9.20;;;;;;7362857;19;20099;-63
2022/06/12 01:39:44;;;;;;;7.45;6.65;;;16.50;11.00;;;;;;7365559;19;20003;-63
2022/06/12 01:42:22;;;;;;;7.32;5.68;;;16.50;10.80;;;;;;7387570;19;20010;-63
2022/06/12 01:45:08;;;;;;;7.93;6.70;;;16.50;11.10;;;;;;7362904;19;20060;-63
2022/06/12 01:47:46;;;;;;;9.30;6.75;;;16.50;12.20;;;;;;7361777;19;20019;-62
2022/06/12 01:50:19;;;;;;;8.00;6.80;;;16.50;12.20;;;;;;7365025;19;20081;-63
2022/06/12 01:53:02;;;;;;;7.85;6.40;;;16.60;11.80;;;;;;7366263;19;20040;-62
2022/06/12 01:55:39;;;;;;;8.57;5.82;;;16.50;11.70;;;;;;7360641;19;20015;-62
2022/06/12 01:58:15;;;;;;;8.85;6.32;;;16.50;12.20;;;;;;7361950;19;20009;-62
2022/06/12 02:00:53;;;;;;;9.52;6.95;;;16.50;12.40;;;;;;7367095;19;20082;-63
2022/06/12 02:03:30;;;;;;;8.45;6.68;;;16.40;12.20;;;;;;7365723;19;20045;-63
2022/06/12 02:06:05;;;;;;;9.43;7.05;;;16.40;12.20;;;;;;7382893;19;20078;-62
2022/06/12 02:08:37;;;;;;;;;;;16.40;12.60;;;;;;7362908;19;20007;-63
2022/06/12 02:13:56;;;;;;;9.75;7.22;;;16.40;12.70;;;;;;7366396;19;20017;-63
2022/06/12 02:16:32;;;;;;;8.15;7.22;;;16.50;12.50;;;;;;7362254;19;20010;-63
2022/06/12 02:19:07;;;;;;;11.00;7.70;;;16.60;12.30;;;;;;7362538;19;20222;-63
2022/06/12 02:21:42;;;;;;;10.07;8.32;;;16.70;11.90;;;;;;7364066;19;20082;-63
2022/06/12 02:24:16;;;;;;;9.90;7.93;;;16.60;12.00;;;;;;7386002;19;20010;-63
2022/06/12 02:27:00;;;;;;;11.23;8.18;;;16.60;11.90;;;;;;7362260;19;20014;-63
2022/06/12 02:29:38;;;;;;;10.52;7.88;;;16.70;11.60;;;;;;7362153;19;20018;-63
2022/06/12 02:32:16;;;;;;;13.98;8.75;;;16.70;11.60;;;;;;7365668;19;20138;-63
2022/06/12 02:34:54;;;;;;;14.23;8.07;;;16.80;9.80;;;;;;7361759;19;20017;-63
2022/06/12 02:37:28;;;;;;;8.95;7.50;;;16.80;9.30;;;;;;7362033;19;20034;-62
2022/06/12 02:40:02;;;;;;;10.25;7.93;;;16.90;8.80;;;;;;7363417;19;20006;-62
2022/06/12 02:42:39;;;;;;;11.32;7.40;;;16.90;8.80;;;;;;7366442;19;20172;-62
2022/06/12 02:45:12;;;;;;;9.95;8.02;;;16.90;8.50;;;;;;7382059;19;20482;-62
2022/06/12 02:47:47;;;;;;;9.27;7.43;;;16.90;8.20;;;;;;7361769;19;20018;-63
2022/06/12 02:50:21;;;;;;;10.10;7.28;;;17.00;7.80;;;;;;7364984;19;20021;-62
2022/06/12 02:53:09;;;;;;;10.20;7.25;;;16.90;7.70;;;;;;7365279;19;20014;-62
2022/06/12 02:55:46;;;;;;;7.95;6.88;;;16.90;7.60;;;;;;7361227;19;20015;-63
2022/06/12 02:58:22;;;;;;;9.82;7.43;;;16.90;7.90;;;;;;7360962;19;20086;-63
2022/06/12 03:00:55;;;;;;;13.10;7.28;;;16.90;7.80;;;;;;7364106;19;20105;-63
2022/06/12 03:03:33;;;;;;;11.25;7.30;;;17.00;7.20;;;;;;7364584;19;20029;-63
2022/06/12 03:06:03;;;;;;;7.97;6.80;;;16.90;7.30;;;;;;7380759;19;20042;-62
2022/06/12 03:08:38;;;;;;;10.60;6.95;;;16.90;8.00;;;;;;7360587;19;20518;-62
2022/06/12 03:11:16;;;;;;;8.30;7.00;;;16.80;8.60;;;;;;7364486;19;20106;-63
2022/06/12 03:13:48;;;;;;;10.02;7.07;;;16.70;8.90;;;;;;7365170;19;20118;-63
2022/06/12 03:16:23;;;;;;;10.80;7.88;;;16.70;8.70;;;;;;7360020;19;20010;-62
2022/06/12 03:18:59;;;;;;;10.85;7.07;;;16.70;9.10;;;;;;7360123;19;20019;-62
2022/06/12 03:21:39;;;;;;;12.52;7.40;;;16.70;9.10;;;;;;7364010;19;20082;-63
2022/06/12 03:24:30;;;;;;;9.70;7.72;;;16.70;9.10;;;;;;7383914;19;20466;-62
2022/06/12 03:27:13;;;;;;;13.80;7.90;;;16.60;9.50;;;;;;7360757;19;20103;-63
2022/06/12 03:29:50;;;;;;;10.45;6.90;;;16.60;9.50;;;;;;7361599;19;20078;-63
2022/06/12 03:32:24;;;;;;;9.60;6.97;;;16.60;9.30;;;;;;7365912;19;20132;-63
2022/06/12 03:35:21;;;;;;;8.57;6.90;;;16.70;9.00;;;;;;7363062;19;20018;-63
2022/06/12 03:37:59;;;;;;;9.77;6.65;;;16.70;9.00;;;;;;7363876;19;20100;-62
2022/06/12 03:40:36;;;;;;;9.13;7.45;;;16.70;8.60;;;;;;7369186;19;20103;-63
2022/06/12 03:43:14;;;;;;;8.20;6.28;;;17.50;5.40;;;;;;7368018;19;20014;-63
2022/06/12 03:45:52;;;;;;;6.70;5.90;;;18.10;1.00;;;;;;7363393;19;21015;-63
2022/06/12 03:48:31;;;;;;;11.05;5.80;;;18.50;1.00;;;;;;7364933;19;20011;-63
2022/06/12 03:51:12;;;;;;;9.15;5.88;;;18.80;1.00;;;;;;7389538;19;20029;-63
2022/06/12 03:53:50;;;;;;;8.88;6.18;;;19.00;1.00;;;;;;7370050;19;20007;-62
2022/06/12 03:59:17;;;;;;;8.95;6.00;;;20.00;1.00;;;;;;7364525;19;20014;-63
2022/06/12 04:01:49;;;;;;;8.68;5.88;;;19.60;1.00;;;;;;7368811;19;20010;-63
2022/06/12 04:04:21;;;;;;;6.90;5.32;;;19.70;1.00;;;;;;7366607;19;20055;-63
2022/06/12 04:06:55;;;;;;;7.22;5.75;;;20.20;1.00;;;;;;7365025;19;20022;-63
2022/06/12 04:09:28;;;;;;;6.05;5.45;;;20.00;1.00;;;;;;7367636;19;20010;-63
2022/06/12 04:12:01;;;;;;;7.85;5.72;;;20.40;1.00;;;;;;7392655;19;20018;-63
2022/06/12 04:14:34;;;;;;;9.75;6.15;;;20.90;1.00;;;;;;7368002;19;20011;-63
2022/06/12 04:17:07;;;;;;;10.40;6.18;;;21.00;1.00;;;;;;7367358;19;20093;-63
2022/06/12 04:19:58;;;;;;;7.10;5.28;;;20.50;1.00;;;;;;7366195;19;20022;-63
2022/06/12 04:22:40;;;;;;;6.65;5.63;;;20.30;1.00;;;;;;7369758;19;20035;-63
2022/06/12 04:25:27;;;;;;;7.43;5.40;;;20.60;1.00;;;;;;7364376;19;20018;-63
2022/06/12 04:27:57;;;;;;;12.65;5.97;;;20.10;1.00;;;;;;7364265;19;20608;-64
2022/06/12 04:30:31;;;;;;;7.32;5.50;;;20.00;1.00;;;;;;7369336;19;20015;-63
2022/06/12 04:33:26;;;;;;;7.18;6.03;;;20.60;1.00;;;;;;7391887;19;20014;-63
2022/06/12 04:35:59;;;;;;;6.82;5.70;;;20.60;1.00;;;;;;7363556;19;20014;-63
2022/06/12 04:38:34;;;;;;;5.85;4.63;;;21.20;1.00;;;;;;7365287;19;20186;-63
2022/06/12 04:41:04;;;;;;;10.02;5.60;;;21.30;1.00;;;;;;7369455;19;20014;-63
2022/06/12 04:43:35;;;;;;;5.95;5.07;;;21.40;1.00;;;;;;7368617;19;20115;-63
2022/06/12 04:46:06;;;;;;;6.28;5.10;;;22.10;1.00;;;;;;7363829;19;20006;-64
2022/06/12 04:48:40;;;;;;;7.45;4.80;;;22.20;1.00;;;;;;7365432;19;20004;-63
2022/06/12 04:51:12;;;;;;;6.00;5.40;;;22.20;1.00;;;;;;7391277;19;20380;-64
2022/06/12 04:53:46;;;;;;;6.47;5.68;;;22.50;1.00;;;;;;7369954;19;20021;-63
2022/06/12 04:56:18;;;;;;;7.72;5.10;;;22.70;1.00;;;;;;7362634;19;20010;-62
2022/06/12 04:58:48;;;;;;;7.20;5.30;;;23.80;1.00;;;;;;7364225;19;20093;-63
2022/06/12 05:01:18;;;;;;;6.57;5.15;;;22.90;1.00;;;;;;7368539;19;20017;-63
2022/06/12 05:03:48;;;;;;;6.03;5.30;;;23.00;1.00;;;;;;7368487;19;20839;-63
2022/06/12 05:06:20;;;;;;;6.15;5.53;;;23.20;1.00;;;;;;7363088;19;20025;-63
2022/06/12 05:08:52;;;;;;;10.60;5.45;;;22.70;1.00;;;;;;7386190;19;20010;-63
2022/06/12 05:11:23;;;;;;;7.00;5.40;;;23.50;1.00;;;;;;7368835;19;20394;-63
2022/06/12 05:13:54;;;;;;;8.45;5.10;;;23.10;1.00;;;;;;7368334;19;20007;-64
2022/06/12 05:16:32;;;;;;;9.85;5.53;;;22.80;1.00;;;;;;7361127;19;20014;-64
2022/06/12 05:19:03;;;;;;;7.63;5.95;;;23.80;1.00;;;;;;7363339;19;20006;-63
2022/06/12 05:21:34;;;;;;;7.10;5.70;;;23.40;1.00;;;;;;7369168;19;20394;-63
2022/06/12 05:24:07;;;;;;;7.65;5.57;;;23.40;1.00;;;;;;7389127;19;20014;-63
2022/06/12 05:26:37;;;;;;;7.47;5.65;;;23.30;1.00;;;;;;7362088;19;20363;-63
2022/06/12 05:29:09;;;;;;;8.80;5.78;;;24.10;1.00;;;;;;7362695;19;20021;-64
2022/06/12 05:31:39;;;;;;;7.75;5.35;;;24.10;1.00;;;;;;7368894;19;20344;-63
2022/06/12 05:34:09;;;;;;;9.27;5.57;;;23.60;1.00;;;;;;7367667;19;20014;-63
2022/06/12 05:36:39;;;;;;;8.02;5.47;;;23.80;1.00;;;;;;7361511;19;20017;-63
2022/06/12 05:39:12;;;;;;;8.60;6.03;;;23.50;1.00;;;;;;7385680;19;20022;-63
2022/06/12 05:41:42;;;;;;;7.45;5.72;;;24.20;1.00;;;;;;7367927;19;20015;-62
2022/06/12 05:44:12;;;;;;;8.13;5.40;;;23.30;1.00;;;;;;7366783;19;20371;-63
2022/06/12 05:46:43;;;;;;;8.68;5.57;;;23.50;1.00;;;;;;7362605;19;20011;-63
2022/06/12 05:49:14;;;;;;;5.88;5.32;;;23.40;1.00;;;;;;7364117;19;20018;-62
2022/06/12 05:51:44;;;;;;;6.93;5.72;;;23.40;1.00;;;;;;7367507;19;20014;-63
2022/06/12 05:54:17;;;;;;;8.13;5.70;;;23.20;1.00;;;;;;7390370;19;20014;-63
2022/06/12 05:56:48;;;;;;;7.50;5.65;;;24.20;1.00;;;;;;7360353;19;20018;-64
2022/06/12 05:59:18;;;;;;;7.28;5.53;;;24.00;1.00;;;;;;7364024;19;20078;-63
2022/06/12 06:01:48;;;;;;;7.20;5.78;;;24.00;1.00;;;;;;7366311;19;20014;-63
2022/06/12 06:04:18;;;;;;;8.30;6.10;;;23.10;1.00;;;;;;7366278;19;20093;-64
2022/06/12 06:06:52;;;;;;;8.05;6.15;;;22.20;1.00;;;;;;7360849;19;20014;-63
2022/06/12 06:09:25;;;;;;;;;;;21.60;1.00;;;;;;7364853;19;20014;-63
2022/06/12 06:11:55;;;;;;;9.93;6.57;;;21.20;1.00;;;;;;7385707;19;19918;-63
2022/06/12 06:14:25;;;;;;;8.35;6.43;;;21.30;1.00;;;;;;7364166;19;20697;-63
2022/06/12 06:16:55;;;;;;;7.45;5.75;;;21.30;1.00;;;;;;7361194;19;20018;-64
2022/06/12 06:19:25;;;;;;;8.55;5.93;;;21.40;1.00;;;;;;7364108;19;20019;-64
2022/06/12 06:21:56;;;;;;;8.02;5.90;;;21.60;1.00;;;;;;7366319;19;20013;-63
2022/06/12 06:24:28;;;;;;;11.55;6.05;;;21.60;1.00;;;;;;7364199;19;20007;-64
2022/06/12 06:26:58;;;;;;;10.60;6.45;;;21.80;1.00;;;;;;7382332;19;20086;-63
2022/06/12 06:29:28;;;;;;;7.45;6.03;;;22.20;1.00;;;;;;7363500;19;20010;-63
2022/06/12 06:31:58;;;;;;;8.38;5.72;;;22.10;1.00;;;;;;7366033;19;20018;-63
2022/06/12 06:34:28;;;;;;;6.90;5.35;;;22.00;1.00;;;;;;7363489;19;20015;-63
2022/06/12 06:36:58;;;;;;;7.55;5.60;;;22.60;1.00;;;;;;7361016;19;20136;-63
2022/06/12 06:39:30;;;;;;;6.70;5.00;;;23.50;1.00;;;;;;7363832;19;20018;-63
2022/06/12 06:42:00;;;;;;;5.38;4.78;;;23.60;1.00;;;;;;7387046;19;20014;-64
2022/06/12 06:47:13;;;;;;;7.78;5.43;;;23.20;1.00;;;;;;7361806;19;20017;-64
2022/06/12 06:49:43;;;;;;;8.95;5.43;;;22.80;1.00;;;;;;7362063;19;20014;-64
2022/06/12 06:52:12;;;;;;;6.75;5.43;;;22.70;1.00;;;;;;7365125;19;20559;-63
2022/06/12 06:54:45;;;;;;;6.97;5.28;;;22.60;1.00;;;;;;7363856;19;20010;-64
2022/06/12 06:57:15;;;;;;;6.95;5.70;;;22.80;1.00;;;;;;7380972;19;20019;-64
2022/06/12 06:59:45;;;;;;;9.02;5.55;;;23.00;1.00;;;;;;7384295;19;20032;-64
2022/06/12 07:02:15;;;;;;;7.32;5.25;;;22.50;1.00;;;;;;7364616;19;20078;-63
2022/06/12 07:04:45;;;;;;;8.98;5.28;;;22.20;1.00;;;;;;7361037;19;20102;-63
2022/06/12 07:07:15;;;;;;;7.13;5.20;;;22.30;1.00;;;;;;7364204;19;20070;-63
2022/06/12 07:09:48;;;;;;;6.38;4.60;;;22.50;1.00;;;;;;7376415;19;20462;-65
2022/06/12 07:12:18;;;;;;;7.82;5.13;;;22.40;1.00;;;;;;7379172;19;20021;-68
2022/06/12 07:14:48;;;;;;;7.68;5.10;;;22.80;1.00;;;;;;7397354;19;20074;-62
2022/06/12 07:17:17;;;;;;;5.93;4.40;;;22.90;1.00;;;;;;7375712;19;20545;-62
2022/06/12 07:19:47;;;;;;;6.00;4.68;;;23.00;1.00;;;;;;7374616;19;20103;-63
2022/06/12 07:22:18;;;;;;;5.70;4.70;;;23.30;1.00;;;;;;7379752;19;20093;-63
2022/06/12 07:24:50;;;;;;;4.63;3.63;;;22.90;1.00;;;;;;7376716;19;20135;-63
2022/06/12 07:27:20;;;;;;;5.00;3.40;;;23.20;1.00;;;;;;7373233;19;20539;-63
2022/06/12 07:29:50;;;;;;;6.45;3.30;;;23.20;1.00;;;;;;7396898;19;20011;-63
2022/06/12 07:32:21;;;;;;;7.90;3.70;;;23.50;1.00;;;;;;7378149;19;20014;-63
2022/06/12 07:34:51;;;;;;;3.78;3.33;;;23.30;1.00;;;;;;7375180;19;20006;-63
2022/06/12 07:37:21;;;;;;;5.93;3.75;;;23.60;1.00;;;;;;7374202;19;20011;-63
2022/06/12 07:39:54;;;;;;;8.30;3.58;;;23.50;1.00;;;;;;7374650;19;20009;-63
2022/06/12 07:42:30;;;;;;;5.78;3.55;;;23.40;1.00;;;;;;7379182;19;20024;-63
2022/06/12 07:45:00;;;;;;;4.13;3.38;;;23.10;1.00;;;;;;7396189;19;20077;-63
2022/06/12 07:47:30;;;;;;;7.45;3.60;;;23.40;1.00;;;;;;7375272;19;20030;-63
2022/06/12 07:50:03;;;;;;;5.93;4.15;;;23.50;1.00;;;;;;7375648;19;20421;-63
2022/06/12 07:52:33;;;;;;;6.22;3.85;;;23.70;1.00;;;;;;7378956;19;20031;-63
2022/06/12 07:55:07;;;;;;;4.50;3.63;;;23.70;1.00;;;;;;7374010;19;20078;-64
2022/06/12 07:57:37;;;;;;;9.82;3.88;;;24.10;1.00;;;;;;7374841;19;20014;-64
2022/06/12 08:00:10;;;;;;;3.90;3.40;;;24.10;1.00;;;;;;7398979;19;20018;-64
2022/06/12 08:02:40;;;;;;;5.03;3.67;;;24.20;1.00;;;;;;7378108;19;20003;-64
2022/06/12 08:05:11;;;;;;;6.05;3.35;;;24.30;1.00;;;;;;7371579;19;20017;-64
2022/06/12 08:07:41;;;;;;;6.43;4.00;;;24.60;1.00;;;;;;7373396;19;21332;-64
2022/06/12 08:10:14;;;;;;;6.40;4.00;;;24.60;1.00;;;;;;7375935;19;20022;-64
2022/06/12 08:12:46;;;;;;;5.38;3.17;;;24.40;1.00;;;;;;7377264;19;20014;-62
2022/06/12 08:15:19;;;;;;;6.80;3.40;;;24.50;1.00;;;;;;7383280;19;20010;-63
2022/06/12 08:17:49;;;;;;;5.25;3.17;;;24.60;1.00;;;;;;7394884;19;20118;-64
2022/06/12 08:20:30;;;;;;;3.88;2.95;;;24.40;1.00;;;;;;7367770;19;20085;-64
2022/06/12 08:23:05;;;;;;;6.75;3.65;;;24.30;1.00;;;;;;7370518;19;20014;-65
2022/06/12 08:25:39;;;;;;;4.43;3.35;;;24.80;1.00;;;;;;7365007;19;20015;-63
2022/06/12 08:28:09;;;;;;;7.75;3.78;;;25.10;1.00;;;;;;7365540;19;20006;-63
2022/06/12 08:30:39;;;;;;;6.95;3.55;;;24.80;1.00;;;;;;7370504;19;20075;-62
2022/06/12 08:33:09;;;;;;;4.80;3.10;;;24.80;1.00;;;;;;7392624;19;20023;-63
2022/06/12 08:35:39;;;;;;;7.63;3.47;;;24.60;1.00;;;;;;7364135;19;20003;-64
2022/06/12 08:38:11;;;;;;;7.90;3.33;;;24.80;1.00;;;;;;7365616;19;20014;-63
2022/06/12 08:40:50;;;;;;;4.25;3.40;;;25.10;1.00;;;;;;7369777;19;20509;-63
2022/06/12 08:43:31;;;;;;;4.50;2.78;;;25.50;1.00;;;;;;7370365;19;20010;-63
2022/06/12 08:46:08;;;;;;;4.55;2.58;;;25.20;1.00;;;;;;7363831;19;20093;-65
2022/06/12 08:48:49;;;;;;;4.45;3.08;;;25.30;1.00;;;;;;7365856;19;20085;-63
2022/06/12 08:51:26;;;;;;;4.28;2.55;;;25.60;1.00;;;;;;7369735;19;20086;-63
2022/06/12 08:54:00;;;;;;;4.65;3.08;;;26.00;1.00;;;;;;7391362;19;20011;-63
2022/06/12 08:56:41;;;;;;;6.00;2.85;;;26.20;1.00;;;;;;7362413;19;20039;-64
2022/06/12 08:59:18;;;;;;;5.45;2.53;;;26.00;1.00;;;;;;7365236;19;20530;-64
2022/06/12 09:01:48;;;;;;;4.70;2.97;;;25.80;1.00;;;;;;7367907;19;20102;-64
2022/06/12 09:04:23;;;;;;;4.68;2.72;;;26.10;1.00;;;;;;7367945;19;20019;-64
2022/06/12 09:06:59;;;;;;;6.32;2.70;;;26.00;1.00;;;;;;7362319;19;20007;-64
2022/06/12 09:09:39;;;;;;;6.68;2.90;;;26.30;1.00;;;;;;7364615;19;20023;-63
2022/06/12 09:12:24;;;;;;;6.82;2.70;;;26.50;1.00;;;;;;7391006;19;20088;-64
2022/06/12 09:15:06;;;;;;;4.63;2.33;;;26.60;1.00;;;;;;7365885;19;20011;-63
2022/06/12 09:17:45;;;;;;;5.50;2.65;;;26.60;1.00;;;;;;7365000;19;20014;-64
2022/06/12 09:20:24;;;;;;;3.28;2.70;;;26.20;1.00;;;;;;7367339;19;20089;-63
2022/06/12 09:23:02;;;;;;;3.75;2.67;;;26.10;1.00;;;;;;7367955;19;20028;-64
2022/06/12 09:25:41;;;;;;;3.85;2.42;;;26.10;1.00;;;;;;7362680;19;20490;-64
2022/06/12 09:28:25;;;;;;;6.13;2.70;;;26.10;1.00;;;;;;7360835;19;20010;-64
2022/06/12 09:30:59;;;;;;;3.85;2.63;;;26.10;1.00;;;;;;7366317;19;20094;-64
2022/06/12 09:33:35;;;;;;;4.35;2.67;;;26.40;1.00;;;;;;7367152;19;20022;-63
2022/06/12 09:36:22;;;;;;;4.32;2.33;;;26.50;1.00;;;;;;7383206;19;20096;-64
2022/06/12 09:39:03;;;;;;;3.33;2.53;;;26.40;1.00;;;;;;7362815;19;20006;-64
2022/06/12 09:41:43;;;;;;;3.67;2.42;;;26.70;1.00;;;;;;7366673;19;20515;-63
2022/06/12 09:44:20;;;;;;;5.85;2.53;;;26.90;1.00;;;;;;7367312;19;20765;-64
2022/06/12 09:47:02;;;;;;;4.30;2.63;;;26.40;1.00;;;;;;7362016;19;20019;-63
2022/06/12 09:49:59;;;;;;;4.43;2.30;;;26.40;1.00;;;;;;7364352;19;20010;-63
2022/06/12 09:52:53;;;;;;;4.38;2.50;;;26.50;1.00;;;;;;7366699;19;20010;-64
2022/06/12 09:55:30;;;;;;;3.50;2.37;;;26.10;1.00;;;;;;7361974;19;20010;-64
2022/06/12 09:58:08;;;;;;;3.55;2.28;;;26.80;1.00;;;;;;7360327;19;20846;-64
2022/06/12 10:00:47;;;;;;;3.42;2.40;;;26.70;1.00;;;;;;7365658;19;20011;-63
2022/06/12 10:03:22;;;;;;;4.82;2.58;;;26.30;1.00;;;;;;7371692;19;20005;-63
2022/06/12 10:05:58;;;;;;;3.97;2.10;;;26.70;1.00;;;;;;7382032;19;20406;-63
2022/06/12 10:08:36;;;;;;;2.70;2.13;;;26.60;1.00;;;;;;7360387;19;20021;-63
2022/06/12 10:11:12;;;;;;;2.47;1.77;;;26.60;1.00;;;;;;7363738;19;20936;-64
2022/06/12 10:13:55;;;;;;;5.10;2.30;;;27.00;1.00;;;;;;7365652;19;20068;-63
2022/06/12 10:16:32;;;;;;;5.97;2.50;;;26.50;1.00;;;;;;7358125;19;20014;-63
2022/06/12 10:19:27;;;;;;;2.80;1.95;;;26.70;1.00;;;;;;7363413;19;20014;-63
2022/06/12 10:22:00;;;;;;;4.63;2.28;;;27.30;1.00;;;;;;7365055;19;20074;-64
2022/06/12 10:24:30;;;;;;;3.78;2.60;;;26.80;1.00;;;;;;7362064;19;20121;-64
2022/06/12 10:27:03;;;;;;;2.47;2.10;;;27.30;1.00;;;;;;7379301;19;20025;-64
2022/06/12 10:29:45;;;;;;;4.47;2.50;;;27.60;1.00;;;;;;7361505;19;20620;-64
2022/06/12 10:32:22;;;;;;;2.80;1.98;;;27.70;1.00;;;;;;7364512;19;20014;-63
2022/06/12 10:34:56;;;;;;;4.38;1.98;;;27.20;1.00;;;;;;7361914;19;20015;-63
2022/06/12 10:37:29;;;;;;;3.65;2.20;;;27.20;1.00;;;;;;7359539;19;20348;-64
2022/06/12 10:40:03;;;;;;;11.23;2.08;;;27.30;1.00;;;;;;7361809;19;20189;-64
2022/06/12 10:42:44;;;;;;;3.33;2.33;;;26.90;1.00;;;;;;7360716;19;20475;-64
2022/06/12 10:45:24;;;;;;;6.00;2.78;;;27.00;1.00;;;;;;7381448;19;20015;-64
2022/06/12 10:47:58;;;;;;;4.97;2.40;;;26.90;1.00;;;;;;7358169;19;20040;-64
2022/06/12 10:50:31;;;;;;;3.25;1.98;;;27.60;1.00;;;;;;7363555;19;20089;-64
2022/06/12 10:53:04;;;;;;;3.90;2.22;;;27.70;1.00;;;;;;7361180;19;20021;-64
2022/06/12 10:55:47;;;;;;;;;;;27.60;1.00;;;;;;7359938;19;20489;-63
2022/06/12 10:58:52;;;;;;;5.28;2.38;;;27.30;1.00;;;;;;7359676;19;20244;-65
2022/06/12 11:01:31;;;;;;;3.45;2.00;;;27.30;1.00;;;;;;7362736;19;20430;-64
2022/06/12 11:04:15;;;;;;;3.53;2.30;;;27.00;1.00;;;;;;7363560;19;20015;-64
2022/06/12 11:06:54;;;;;;;4.13;1.98;;;27.20;1.00;;;;;;7357182;19;20078;-63
2022/06/12 11:09:36;;;;;;;3.67;2.08;;;27.60;1.00;;;;;;7361480;19;20014;-64
2022/06/12 11:12:27;;;;;;;3.75;2.08;;;27.40;1.00;;;;;;7383941;19;20035;-65
2022/06/12 11:15:12;;;;;;;3.00;1.83;;;27.80;1.00;;;;;;7360544;19;20003;-64
2022/06/12 11:17:54;;;;;;;3.20;2.10;;;27.90;1.00;;;;;;7357876;19;20082;-64
2022/06/12 11:20:37;;;;;;;3.63;2.17;;;28.00;1.00;;;;;;7361932;19;20141;-63
2022/06/12 11:23:37;;;;;;;5.45;2.15;;;28.30;1.00;;;;;;7363416;19;20007;-63
2022/06/12 11:26:27;;;;;;;4.20;2.13;;;28.40;1.00;;;;;;7356349;19;20015;-62
2022/06/12 11:29:08;;;;;;;2.15;1.70;;;27.90;1.00;;;;;;7358573;19;20015;-63
2022/06/12 11:31:52;;;;;;;2.50;2.22;;;27.90;1.00;;;;;;7363471;19;20010;-64
2022/06/12 11:34:42;;;;;;;4.13;2.10;;;27.80;1.00;;;;;;7359139;19;20371;-63
2022/06/12 11:37:36;;;;;;;3.15;1.88;;;27.70;1.00;;;;;;7357018;19;20042;-64
2022/06/12 11:40:11;;;;;;;;;;;27.80;1.00;;;;;;7362196;19;20011;-64
2022/06/12 11:42:46;;;;;;;;;;;27.50;1.00;;;;;;7364210;19;19924;-64
2022/06/12 11:45:46;;;;;;;5.43;2.28;;;28.10;1.00;;;;;;7360294;19;19938;-64
2022/06/12 11:48:43;;;;;;;4.75;2.10;;;28.10;1.00;;;;;;7373028;19;20017;-63
2022/06/12 11:51:29;;;;;;;3.00;2.15;;;27.70;1.00;;;;;;7364819;19;20074;-63
2022/06/12 11:54:15;;;;;;;3.88;2.20;;;28.10;1.00;;;;;;7387381;19;20011;-64
2022/06/12 11:56:55;;;;;;;3.38;1.92;;;28.20;1.00;;;;;;7362310;19;20474;-64
2022/06/12 11:59:37;;;;;;;2.55;1.75;;;28.00;1.00;;;;;;7366627;19;20078;-64
2022/06/12 12:02:16;;;;;;;3.33;2.13;;;28.20;1.00;;;;;;7369619;19;20015;-65
2022/06/12 12:05:08;;;;;;;4.95;2.50;;;28.40;1.00;;;;;;7366930;19;20119;-64
2022/06/12 12:07:52;;;;;;;5.47;1.88;;;28.60;1.00;;;;;;7362676;19;20086;-63
2022/06/12 12:10:47;;;;;;;3.08;2.05;;;28.20;1.00;;;;;;7368890;19;21261;-63
2022/06/12 12:13:20;;;;;;;2.58;2.10;;;28.00;1.00;;;;;;7368923;19;20381;-64
2022/06/12 12:15:53;;;;;;;4.57;2.00;;;27.80;1.00;;;;;;7363833;19;20010;-64
2022/06/12 12:18:33;;;;;;;3.42;2.05;;;28.20;1.00;;;;;;7365275;19;20020;-63
2022/06/12 12:21:06;;;;;;;2.15;1.90;;;28.30;1.00;;;;;;7388073;19;20098;-63
2022/06/12 12:23:41;;;;;;;2.43;1.93;;;28.80;1.00;;;;;;7367964;19;20078;-64
2022/06/12 12:26:17;;;;;;;3.08;2.00;;;28.70;1.00;;;;;;7363028;19;20275;-62
2022/06/12 12:28:52;;;;;;;4.60;2.05;;;28.50;1.00;;;;;;7363474;19;20013;-64
2022/06/12 12:31:23;;;;;;;2.38;2.03;;;28.90;1.00;;;;;;7369824;19;20443;-64
2022/06/12 12:33:54;;;;;;;5.38;2.45;;;28.70;1.00;;;;;;7369815;19;20021;-64
2022/06/12 12:42:29;;;;;;;3.58;2.13;;;28.90;1.00;;;;;;7263771;19;2004301;-64
2022/06/12 12:45:13;;;;;;;3.92;2.30;;;29.40;1.00;;;;;;7386651;19;20084;-64
2022/06/12 12:47:43;;;;;;;4.30;2.17;;;29.40;1.00;;;;;;7360740;19;20017;-63
2022/06/12 12:50:16;;;;;;;5.72;2.30;;;29.30;1.00;;;;;;7366691;19;20034;-62
2022/06/12 12:52:50;;;;;;;4.50;2.53;;;29.80;1.00;;;;;;7366727;19;20022;-63
2022/06/12 12:55:25;;;;;;;4.43;2.53;;;29.10;1.00;;;;;;7363665;19;20012;-64
2022/06/12 12:58:00;;;;;;;3.17;2.38;;;29.10;1.00;;;;;;7362907;19;20015;-64
2022/06/12 13:00:36;;;;;;;5.25;2.45;;;29.10;1.00;;;;;;7369384;19;20085;-63
2022/06/12 13:03:12;;;;;;;6.57;2.95;;;28.90;1.00;;;;;;7390411;19;20017;-64
2022/06/12 13:06:13;;;;;;;6.35;2.70;;;28.70;1.00;;;;;;7361845;19;20550;-64
2022/06/12 13:09:10;;;;;;;3.92;2.10;;;29.50;1.00;;;;;;7361570;19;20086;-63
2022/06/12 13:11:52;;;;;;;4.65;1.98;;;29.40;1.00;;;;;;7368854;19;20083;-64
2022/06/12 13:14:37;;;;;;;3.47;2.00;;;29.90;1.00;;;;;;7366673;19;20025;-64
2022/06/12 13:17:20;;;;;;;2.95;2.20;;;29.10;1.00;;;;;;7363962;19;20006;-63
2022/06/12 13:20:04;;;;;;;4.13;2.05;;;29.60;1.00;;;;;;7364204;19;20570;-64
2022/06/12 13:22:47;;;;;;;7.22;2.95;;;29.00;1.00;;;;;;7369445;19;20074;-63
2022/06/12 13:25:20;;;;;;;4.90;2.00;;;29.00;1.00;;;;;;7366134;19;20018;-64
2022/06/12 13:27:54;;;;;;;4.50;2.30;;;29.30;1.00;;;;;;7360778;19;20007;-64
2022/06/12 13:30:31;;;;;;;3.22;2.00;;;29.00;1.00;;;;;;7364935;19;20057;-64
2022/06/12 13:33:10;;;;;;;3.17;2.20;;;28.60;1.00;;;;;;7390019;19;20017;-64
2022/06/12 13:35:47;;;;;;;3.05;2.10;;;29.10;1.00;;;;;;7361408;19;20359;-63
2022/06/12 13:38:23;;;;;;;3.15;2.00;;;29.10;1.00;;;;;;7361979;19;20480;-64
2022/06/12 13:40:59;;;;;;;2.88;1.90;;;29.00;1.00;;;;;;7367375;19;20014;-64
2022/06/12 13:43:38;;;;;;;3.22;2.20;;;29.10;1.00;;;;;;7366813;19;20106;-64
2022/06/12 13:46:23;;;;;;;4.88;2.05;;;29.40;1.00;;;;;;7363328;19;20010;-64
2022/06/12 13:48:55;;;;;;;2.25;2.00;;;29.50;1.00;;;;;;7361027;19;20010;-63
2022/06/12 13:51:32;;;;;;;3.67;2.03;;;29.30;1.00;;;;;;7367823;19;20070;-63
2022/06/12 13:54:05;;;;;;;4.10;2.13;;;28.90;1.00;;;;;;7389153;19;20022;-64
2022/06/12 13:56:35;;;;;;;5.00;2.25;;;29.80;1.00;;;;;;7361186;19;20011;-65
2022/06/12 13:59:06;;;;;;;2.97;1.90;;;29.70;1.00;;;;;;7361550;19;20525;-63
2022/06/12 14:01:39;;;;;;;5.78;2.00;;;29.90;1.00;;;;;;7367302;19;20023;-64